Time;durP1;ratioP1;P1;durP2;ratioP2;P2;SDS_P1;SDS_P2;PMS_P1;PMS_P2;Temp;Humidity;BMP_temperature;BMP_pressure;BME280_temperature;BME280_humidity;BME280_pressure;Samples;Min_cycle;Max_cycle;Signal;HPM_P1;HPM_P2
2021/06/12 00:03:18;;;;;;;12.93;5.20;;;;;;;;;;2042798;24;20475;-87
2021/06/12 00:04:22;;;;;;;10.52;4.93;;;;;;;;;;1438851;41;20427;-86
2021/06/12 00:05:25;;;;;;;11.93;4.97;;;;;;;;;;1439077;41;20477;-86
2021/06/12 00:06:27;;;;;;;13.32;5.28;;;;;;;;;;1437177;41;20423;-87
2021/06/12 00:07:30;;;;;;;10.95;4.70;;;;;;;;;;1436465;41;20424;-85
2021/06/12 00:08:33;;;;;;;12.27;5.25;;;;;;;;;;1429697;41;20447;-88
2021/06/12 00:09:35;;;;;;;12.50;5.05;;;;;;;;;;1428181;41;20493;-90
2021/06/12 00:10:38;;;;;;;11.70;5.05;;;;;;;;;;1427694;41;20425;-89
2021/06/12 00:11:40;;;;;;;14.70;4.90;;;;;;;;;;1431327;41;20822;-85
2021/06/12 00:12:42;;;;;;;13.77;5.38;;;;;;;;;;1434619;41;20441;-85
2021/06/12 00:13:46;;;;;;;10.15;5.07;;;;;;;;;;1437964;41;20485;-88
2021/06/12 00:14:48;;;;;;;12.00;5.72;;;;;;;;;;1441655;41;20400;-89
2021/06/12 00:15:50;;;;;;;11.88;6.10;;;;;;;;;;1434769;41;20426;-88
2021/06/12 00:16:52;;;;;;;10.68;5.18;;;;;;;;;;1429769;41;20430;-89
2021/06/12 00:17:53;;;;;;;14.38;5.13;;;;;;;;;;1429455;41;20432;-90
2021/06/12 00:18:56;;;;;;;12.05;4.97;;;;;;;;;;1436863;41;20413;-89
2021/06/12 00:19:57;;;;;;;13.35;5.78;;;;;;;;;;1438212;41;20428;-88
2021/06/12 00:21:00;;;;;;;14.68;5.93;;;;;;;;;;1436936;41;20436;-87
2021/06/12 00:22:02;;;;;;;9.55;5.22;;;;;;;;;;1436609;41;20468;-88
2021/06/12 00:23:05;;;;;;;12.50;5.85;;;;;;;;;;1433570;41;20440;-90
2021/06/12 00:24:07;;;;;;;11.05;5.38;;;;;;;;;;1435575;41;20749;-87
2021/06/12 00:25:14;;;;;;;11.77;5.38;;;;;;;;;;1432303;41;20794;-89
2021/06/12 00:26:16;;;;;;;15.80;5.95;;;;;;;;;;1431037;41;20423;-86
2021/06/12 00:27:18;;;;;;;9.52;5.15;;;;;;;;;;1430796;41;20431;-90
2021/06/12 00:28:19;;;;;;;10.90;5.10;;;;;;;;;;1431208;41;20598;-89
2021/06/12 00:29:21;;;;;;;13.00;5.60;;;;;;;;;;1428797;41;20958;-90
2021/06/12 00:30:23;;;;;;;11.88;5.78;;;;;;;;;;1431269;41;20686;-89
2021/06/12 00:31:25;;;;;;;13.75;5.93;;;;;;;;;;1431021;41;20421;-87
2021/06/12 00:32:26;;;;;;;10.00;5.47;;;;;;;;;;1418326;41;20471;-88
2021/06/12 00:33:28;;;;;;;11.43;5.70;;;;;;;;;;1423751;41;20784;-87
2021/06/12 00:34:29;;;;;;;13.32;5.50;;;;;;;;;;1430764;41;21655;-89
2021/06/12 00:35:32;;;;;;;15.43;5.80;;;;;;;;;;1426296;41;20428;-90
2021/06/12 00:36:34;;;;;;;10.05;5.63;;;;;;;;;;1430665;41;20784;-89
2021/06/12 00:37:36;;;;;;;10.55;5.68;;;;;;;;;;1426175;41;20939;-88
2021/06/12 00:38:38;;;;;;;10.73;5.63;;;;;;;;;;1426463;41;20444;-87
2021/06/12 00:39:39;;;;;;;9.23;4.87;;;;;;;;;;1428169;41;20511;-89
2021/06/12 00:40:41;;;;;;;11.75;5.93;;;;;;;;;;1431550;41;20475;-90
2021/06/12 00:41:43;;;;;;;11.30;5.50;;;;;;;;;;1431273;41;20438;-84
2021/06/12 00:42:46;;;;;;;10.45;5.15;;;;;;;;;;1424550;41;20477;-86
2021/06/12 00:43:48;;;;;;;13.02;5.13;;;;;;;;;;1427532;41;20451;-88
2021/06/12 00:44:50;;;;;;;11.80;5.45;;;;;;;;;;1436272;41;20460;-88
2021/06/12 00:45:51;;;;;;;13.52;5.40;;;;;;;;;;1432985;41;20454;-88
2021/06/12 00:46:53;;;;;;;10.95;5.50;;;;;;;;;;1432290;41;20931;-89
2021/06/12 00:47:55;;;;;;;12.05;5.60;;;;;;;;;;1428487;41;20448;-90
2021/06/12 00:48:58;;;;;;;14.50;5.80;;;;;;;;;;1431022;41;20469;-88
2021/06/12 00:50:00;;;;;;;10.63;5.23;;;;;;;;;;1432275;41;20940;-88
2021/06/12 00:51:03;;;;;;;13.70;5.93;;;;;;;;;;1423889;41;20449;-87
2021/06/12 00:52:05;;;;;;;13.55;5.97;;;;;;;;;;1423118;41;20457;-88
2021/06/12 00:53:06;;;;;;;12.70;5.50;;;;;;;;;;1430809;41;20447;-87
2021/06/12 00:54:08;;;;;;;11.05;5.50;;;;;;;;;;1430925;41;20482;-87
2021/06/12 00:55:11;;;;;;;12.25;5.45;;;;;;;;;;1430979;41;20539;-85
2021/06/12 00:56:16;;;;;;;9.98;5.20;;;;;;;;;;1430978;41;20476;-88
2021/06/12 00:57:18;;;;;;;13.18;5.38;;;;;;;;;;1428134;41;20526;-88
2021/06/12 00:58:21;;;;;;;10.48;5.55;;;;;;;;;;1439306;41;20504;-87
2021/06/12 00:59:23;;;;;;;12.93;5.38;;;;;;;;;;1436258;41;20476;-87
2021/06/12 01:00:25;;;;;;;13.07;5.30;;;;;;;;;;1436289;41;20421;-88
2021/06/12 01:01:27;;;;;;;11.57;5.15;;;;;;;;;;1437397;41;20417;-87
2021/06/12 01:02:28;;;;;;;12.05;5.15;;;;;;;;;;1438521;41;20436;-87
2021/06/12 01:03:31;;;;;;;12.88;5.35;;;;;;;;;;1433891;41;20549;-87
2021/06/12 01:04:33;;;;;;;12.77;4.78;;;;;;;;;;1430097;41;22086;-90
2021/06/12 01:05:35;;;;;;;15.77;5.60;;;;;;;;;;1432960;41;20861;-89
2021/06/12 01:06:38;;;;;;;10.73;4.40;;;;;;;;;;1426371;41;20433;-90
2021/06/12 01:07:40;;;;;;;11.15;4.97;;;;;;;;;;1424984;41;20433;-90
2021/06/12 01:08:42;;;;;;;12.05;5.60;;;;;;;;;;1429589;41;20705;-86
2021/06/12 01:09:44;;;;;;;11.98;4.90;;;;;;;;;;1428865;41;20479;-87
2021/06/12 01:10:46;;;;;;;12.15;4.85;;;;;;;;;;1426218;41;20439;-84
2021/06/12 01:12:02;;;;;;;11.30;5.40;;;;;;;;;;1422223;41;20418;-89
2021/06/12 01:13:38;;;;;;;11.23;4.97;;;;;;;;;;1426213;41;20478;-90
2021/06/12 01:14:42;;;;;;;13.30;5.20;;;;;;;;;;1428457;41;20420;-89
2021/06/12 01:16:01;;;;;;;9.75;4.65;;;;;;;;;;1429340;41;20621;-87
2021/06/12 01:17:15;;;;;;;8.82;5.40;;;;;;;;;;1434056;41;20430;-91
2021/06/12 01:18:22;;;;;;;8.70;4.82;;;;;;;;;;1430215;41;20541;-89
2021/06/12 01:19:48;;;;;;;10.45;5.25;;;;;;;;;;1431926;41;20828;-88
2021/06/12 01:21:07;;;;;;;9.93;5.00;;;;;;;;;;1434941;41;20508;-88
2021/06/12 01:22:14;;;;;;;13.55;5.97;;;;;;;;;;1434549;41;20504;-89
2021/06/12 01:23:45;;;;;;;10.10;5.07;;;;;;;;;;1434238;41;20447;-86
2021/06/12 01:24:51;;;;;;;15.48;5.53;;;;;;;;;;1436136;41;20423;-85
2021/06/12 01:26:07;;;;;;;14.15;5.90;;;;;;;;;;1433026;41;20411;-85
2021/06/12 01:27:28;;;;;;;13.20;5.65;;;;;;;;;;1434291;41;20496;-86
2021/06/12 01:29:07;;;;;;;14.05;6.20;;;;;;;;;;1435629;41;20446;-85
2021/06/12 01:30:22;;;;;;;13.65;6.55;;;;;;;;;;1440093;41;20416;-88
2021/06/12 01:31:24;;;;;;;15.43;7.00;;;;;;;;;;1439632;41;20516;-87
2021/06/12 01:32:30;;;;;;;12.00;6.13;;;;;;;;;;1432542;41;20476;-88
2021/06/12 01:33:33;;;;;;;15.40;7.20;;;;;;;;;;1434695;41;20439;-88
2021/06/12 01:34:36;;;;;;;12.02;6.38;;;;;;;;;;1435921;41;20444;-90
2021/06/12 01:35:41;;;;;;;12.20;6.40;;;;;;;;;;1428027;41;20439;-88
2021/06/12 01:36:44;;;;;;;12.35;6.88;;;;;;;;;;1429533;41;20444;-87
2021/06/12 01:37:47;;;;;;;15.60;7.55;;;;;;;;;;1424767;41;20476;-87
2021/06/12 01:38:52;;;;;;;19.23;7.30;;;;;;;;;;1420613;41;20433;-89
2021/06/12 01:39:55;;;;;;;14.65;7.13;;;;;;;;;;1425763;41;20426;-89
2021/06/12 01:41:00;;;;;;;15.85;7.55;;;;;;;;;;1428445;41;20427;-87
2021/06/12 01:42:05;;;;;;;12.63;6.82;;;;;;;;;;1428708;41;20462;-90
2021/06/12 01:43:11;;;;;;;11.38;6.47;;;;;;;;;;1432570;41;20439;-89
2021/06/12 01:44:13;;;;;;;13.20;6.75;;;;;;;;;;1431753;41;20419;-89
2021/06/12 01:45:16;;;;;;;14.77;7.45;;;;;;;;;;1423929;41;20580;-90
2021/06/12 01:46:19;;;;;;;11.70;6.70;;;;;;;;;;1423567;41;21076;-88
2021/06/12 01:47:21;;;;;;;19.50;7.85;;;;;;;;;;1426848;41;20795;-89
2021/06/12 01:48:24;;;;;;;15.18;6.97;;;;;;;;;;1420013;41;20821;-88
2021/06/12 01:49:26;;;;;;;17.25;7.82;;;;;;;;;;1423662;41;20544;-87
2021/06/12 01:50:28;;;;;;;15.65;7.38;;;;;;;;;;1421171;41;20437;-89
2021/06/12 01:51:31;;;;;;;14.50;6.45;;;;;;;;;;1426679;41;20420;-88
2021/06/12 01:52:36;;;;;;;12.30;7.03;;;;;;;;;;1429916;41;20555;-87
2021/06/12 01:53:41;;;;;;;17.05;7.40;;;;;;;;;;1427101;41;20468;-86
2021/06/12 01:54:44;;;;;;;18.17;6.93;;;;;;;;;;1431597;41;20423;-86
2021/06/12 01:55:47;;;;;;;14.50;6.72;;;;;;;;;;1427428;41;20545;-85
2021/06/12 01:56:49;;;;;;;18.77;8.48;;;;;;;;;;1423487;41;20433;-91
2021/06/12 01:57:52;;;;;;;13.38;7.10;;;;;;;;;;1423742;41;20538;-90
2021/06/12 01:58:55;;;;;;;16.75;7.72;;;;;;;;;;1427075;41;20488;-90
2021/06/12 01:59:58;;;;;;;11.00;6.95;;;;;;;;;;1427541;41;20447;-86
2021/06/12 02:01:01;;;;;;;15.77;7.13;;;;;;;;;;1432214;41;20422;-89
2021/06/12 02:02:05;;;;;;;16.50;7.70;;;;;;;;;;1432196;41;20474;-90
2021/06/12 02:03:10;;;;;;;13.03;7.40;;;;;;;;;;1431127;41;20431;-87
2021/06/12 02:04:17;;;;;;;14.35;7.32;;;;;;;;;;1431187;41;20510;-90
2021/06/12 02:05:24;;;;;;;14.52;7.43;;;;;;;;;;1440590;41;20423;-90
2021/06/12 02:06:26;;;;;;;13.68;7.47;;;;;;;;;;1436139;41;20414;-87
2021/06/12 02:07:30;;;;;;;12.75;7.35;;;;;;;;;;1430312;41;20450;-89
2021/06/12 02:08:33;;;;;;;17.15;8.40;;;;;;;;;;1433080;41;20873;-87
2021/06/12 02:09:37;;;;;;;12.43;6.83;;;;;;;;;;1434785;41;20542;-87
2021/06/12 02:10:40;;;;;;;15.25;8.25;;;;;;;;;;1430446;41;20427;-90
2021/06/12 02:11:44;;;;;;;14.65;7.68;;;;;;;;;;1422619;41;20711;-86
2021/06/12 02:12:46;;;;;;;12.70;7.07;;;;;;;;;;1427024;41;20463;-85
2021/06/12 02:13:49;;;;;;;14.45;6.88;;;;;;;;;;1435251;41;20534;-85
2021/06/12 02:14:50;;;;;;;12.98;7.00;;;;;;;;;;1429653;41;20422;-85
2021/06/12 02:15:54;;;;;;;11.90;7.20;;;;;;;;;;1426164;41;20501;-87
2021/06/12 02:16:57;;;;;;;12.27;7.38;;;;;;;;;;1426847;41;20432;-87
2021/06/12 02:18:06;;;;;;;13.82;7.55;;;;;;;;;;1430152;41;20754;-87
2021/06/12 02:19:10;;;;;;;10.50;6.75;;;;;;;;;;1435360;41;20441;-87
2021/06/12 02:20:14;;;;;;;11.57;6.95;;;;;;;;;;1433939;41;20416;-88
2021/06/12 02:21:19;;;;;;;12.60;7.13;;;;;;;;;;1435931;41;20622;-90
2021/06/12 02:22:22;;;;;;;12.70;7.57;;;;;;;;;;1436354;41;20501;-89
2021/06/12 02:23:26;;;;;;;12.25;7.25;;;;;;;;;;1434422;41;20687;-89
2021/06/12 02:24:29;;;;;;;12.63;6.95;;;;;;;;;;1435642;41;21373;-86
2021/06/12 02:25:32;;;;;;;11.75;7.18;;;;;;;;;;1431983;41;20438;-89
2021/06/12 02:26:38;;;;;;;15.13;7.93;;;;;;;;;;1432931;41;20631;-87
2021/06/12 02:27:42;;;;;;;13.10;7.43;;;;;;;;;;1436536;41;20519;-89
2021/06/12 02:28:44;;;;;;;12.90;7.72;;;;;;;;;;1432478;41;20426;-85
2021/06/12 02:29:48;;;;;;;11.98;7.35;;;;;;;;;;1432366;41;20427;-85
2021/06/12 02:30:54;;;;;;;13.25;7.70;;;;;;;;;;1432548;41;20430;-90
2021/06/12 02:32:05;;;;;;;10.65;6.55;;;;;;;;;;1434601;41;20668;-86
2021/06/12 02:33:10;;;;;;;10.45;7.03;;;;;;;;;;1435090;41;20441;-91
2021/06/12 02:34:11;;;;;;;13.38;7.47;;;;;;;;;;1437388;41;20453;-87
2021/06/12 02:35:13;;;;;;;10.05;6.93;;;;;;;;;;1432361;41;20429;-89
2021/06/12 02:36:15;;;;;;;9.90;6.95;;;;;;;;;;1428298;41;20432;-89
2021/06/12 02:37:17;;;;;;;9.18;6.50;;;;;;;;;;1431772;41;20847;-90
2021/06/12 02:38:18;;;;;;;12.85;6.55;;;;;;;;;;1431587;41;21014;-90
2021/06/12 02:39:20;;;;;;;9.02;6.10;;;;;;;;;;1428321;41;20412;-90
2021/06/12 02:40:22;;;;;;;9.35;6.72;;;;;;;;;;1431437;41;20515;-89
2021/06/12 02:41:26;;;;;;;9.45;6.20;;;;;;;;;;1434756;41;20429;-86
2021/06/12 02:42:28;;;;;;;11.35;6.75;;;;;;;;;;1428009;41;20440;-85
2021/06/12 02:43:30;;;;;;;10.05;6.68;;;;;;;;;;1427660;41;20530;-88
2021/06/12 02:44:31;;;;;;;8.85;6.30;;;;;;;;;;1434959;41;20432;-87
2021/06/12 02:45:33;;;;;;;9.82;6.50;;;;;;;;;;1434410;41;20428;-90
2021/06/12 02:46:40;;;;;;;9.50;6.53;;;;;;;;;;1434104;41;20424;-87
2021/06/12 02:47:48;;;;;;;5.80;5.20;;;;;;;;;;1430038;41;20890;-86
2021/06/12 02:48:52;;;;;;;8.15;6.35;;;;;;;;;;1431092;41;20809;-87
2021/06/12 02:49:58;;;;;;;6.97;5.90;;;;;;;;;;1434237;41;20428;-88
2021/06/12 02:51:03;;;;;;;9.03;6.20;;;;;;;;;;1434017;41;20476;-87
2021/06/12 02:52:15;;;;;;;9.05;5.43;;;;;;;;;;1430498;41;20434;-87
2021/06/12 02:53:24;;;;;;;7.07;5.75;;;;;;;;;;1433484;41;20466;-87
2021/06/12 02:54:27;;;;;;;8.18;5.25;;;;;;;;;;1434778;41;20422;-86
2021/06/12 02:55:32;;;;;;;7.95;5.25;;;;;;;;;;1433500;41;20425;-87
2021/06/12 02:56:36;;;;;;;9.50;5.77;;;;;;;;;;1434124;41;20437;-87
2021/06/12 02:57:41;;;;;;;12.00;6.47;;;;;;;;;;1434546;41;21123;-87
2021/06/12 02:58:44;;;;;;;7.53;5.67;;;;;;;;;;1429793;41;20511;-87
2021/06/12 02:59:47;;;;;;;8.27;5.50;;;;;;;;;;1427231;41;20517;-85
2021/06/12 03:00:52;;;;;;;8.35;6.05;;;;;;;;;;1431131;41;20418;-85
2021/06/12 03:01:54;;;;;;;8.25;5.78;;;;;;;;;;1435777;41;20541;-88
2021/06/12 03:02:57;;;;;;;7.28;5.45;;;;;;;;;;1434110;41;20425;-87
2021/06/12 03:04:02;;;;;;;8.75;5.32;;;;;;;;;;1435512;41;20517;-88
2021/06/12 03:05:08;;;;;;;6.93;5.13;;;;;;;;;;1435110;41;20427;-88
2021/06/12 03:06:12;;;;;;;10.90;5.45;;;;;;;;;;1433829;41;21275;-86
2021/06/12 03:07:14;;;;;;;12.00;5.97;;;;;;;;;;1432472;41;20497;-87
2021/06/12 03:08:17;;;;;;;9.60;5.93;;;;;;;;;;1433836;41;21252;-88
2021/06/12 03:09:21;;;;;;;7.75;5.60;;;;;;;;;;1434524;41;20420;-87
2021/06/12 03:10:26;;;;;;;8.43;5.15;;;;;;;;;;1431701;41;21152;-88
2021/06/12 03:11:31;;;;;;;8.15;5.38;;;;;;;;;;1431279;41;20482;-87
2021/06/12 03:12:35;;;;;;;8.20;5.18;;;;;;;;;;1433600;41;20437;-88
2021/06/12 03:13:41;;;;;;;7.57;5.32;;;;;;;;;;1429885;41;20422;-87
2021/06/12 03:14:45;;;;;;;6.93;5.57;;;;;;;;;;1430679;41;20434;-89
2021/06/12 03:15:48;;;;;;;8.23;5.75;;;;;;;;;;1429883;41;20856;-85
2021/06/12 03:16:50;;;;;;;9.68;5.75;;;;;;;;;;1426267;41;20430;-88
2021/06/12 03:17:53;;;;;;;11.43;5.75;;;;;;;;;;1429235;41;20745;-87
2021/06/12 03:18:57;;;;;;;9.18;5.60;;;;;;;;;;1425944;41;20439;-88
2021/06/12 03:19:59;;;;;;;9.38;6.30;;;;;;;;;;1426301;41;20839;-88
2021/06/12 03:21:03;;;;;;;7.77;5.53;;;;;;;;;;1425952;41;20455;-89
2021/06/12 03:22:06;;;;;;;11.27;6.05;;;;;;;;;;1430477;41;20449;-89
2021/06/12 03:23:09;;;;;;;8.40;5.80;;;;;;;;;;1434928;41;20488;-86
2021/06/12 03:24:12;;;;;;;10.27;6.22;;;;;;;;;;1436205;41;20845;-89
2021/06/12 03:25:17;;;;;;;9.27;6.13;;;;;;;;;;1437410;41;20432;-89
2021/06/12 03:26:22;;;;;;;14.27;6.15;;;;;;;;;;1433734;41;20439;-86
2021/06/12 03:27:24;;;;;;;9.30;6.28;;;;;;;;;;1442790;41;20431;-88
2021/06/12 03:28:29;;;;;;;11.77;6.80;;;;;;;;;;1439031;41;20566;-86
2021/06/12 03:29:32;;;;;;;9.88;6.07;;;;;;;;;;1435156;41;20517;-88
2021/06/12 03:30:33;;;;;;;9.93;5.65;;;;;;;;;;1438579;41;20438;-89
2021/06/12 03:31:36;;;;;;;12.07;6.18;;;;;;;;;;1440259;41;20419;-88
2021/06/12 03:32:38;;;;;;;13.82;6.47;;;;;;;;;;1432523;41;20467;-89
2021/06/12 03:33:40;;;;;;;11.18;5.88;;;;;;;;;;1430780;41;20434;-86
2021/06/12 03:34:42;;;;;;;10.32;5.78;;;;;;;;;;1440848;41;20427;-87
2021/06/12 03:35:45;;;;;;;8.40;5.85;;;;;;;;;;1443117;41;20411;-85
2021/06/12 03:36:48;;;;;;;8.02;5.80;;;;;;;;;;1443271;41;20415;-85
2021/06/12 03:37:50;;;;;;;13.27;5.93;;;;;;;;;;1442618;41;20570;-85
2021/06/12 03:38:53;;;;;;;10.27;6.10;;;;;;;;;;1435459;41;20431;-86
2021/06/12 03:39:55;;;;;;;9.32;5.50;;;;;;;;;;1435475;41;20527;-85
2021/06/12 03:40:57;;;;;;;8.68;5.57;;;;;;;;;;1431813;41;20436;-86
2021/06/12 03:42:00;;;;;;;7.28;5.50;;;;;;;;;;1436470;41;20501;-85
2021/06/12 03:43:03;;;;;;;8.95;5.47;;;;;;;;;;1440618;41;20435;-87
2021/06/12 03:44:06;;;;;;;9.38;5.32;;;;;;;;;;1440410;41;20420;-84
2021/06/12 03:45:11;;;;;;;9.67;5.17;;;;;;;;;;1439299;41;20582;-89
2021/06/12 03:46:14;;;;;;;7.25;5.10;;;;;;;;;;1435671;41;20411;-90
2021/06/12 03:47:16;;;;;;;7.93;5.13;;;;;;;;;;1439229;41;20442;-91
2021/06/12 03:48:20;;;;;;;11.20;5.60;;;;;;;;;;1428049;41;20441;-90
2021/06/12 03:49:22;;;;;;;12.35;5.47;;;;;;;;;;1427600;41;20418;-88
2021/06/12 03:50:27;;;;;;;10.63;4.90;;;;;;;;;;1434932;41;20438;-91
2021/06/12 03:51:29;;;;;;;9.02;5.13;;;;;;;;;;1430801;41;20481;-86
2021/06/12 03:52:35;;;;;;;10.95;5.50;;;;;;;;;;1429478;41;20779;-88
2021/06/12 03:53:44;;;;;;;9.38;5.22;;;;;;;;;;1430942;41;20406;-90
2021/06/12 03:54:45;;;;;;;11.18;4.80;;;;;;;;;;1427360;41;20598;-86
2021/06/12 03:55:49;;;;;;;9.68;5.10;;;;;;;;;;1432512;41;20488;-85
2021/06/12 03:56:51;;;;;;;8.85;5.00;;;;;;;;;;1433432;41;20421;-88
2021/06/12 03:57:54;;;;;;;8.55;4.35;;;;;;;;;;1432660;41;20535;-90
2021/06/12 03:58:56;;;;;;;9.63;4.75;;;;;;;;;;1430420;41;20561;-89
2021/06/12 03:59:58;;;;;;;7.90;4.35;;;;;;;;;;1428410;41;20635;-87
2021/06/12 04:01:00;;;;;;;7.68;4.47;;;;;;;;;;1435211;41;20446;-86
2021/06/12 04:02:02;;;;;;;8.70;4.87;;;;;;;;;;1438874;41;20519;-87
2021/06/12 04:03:04;;;;;;;8.77;4.53;;;;;;;;;;1435249;41;20422;-86
2021/06/12 04:04:05;;;;;;;7.03;4.65;;;;;;;;;;1430734;41;20441;-88
2021/06/12 04:05:07;;;;;;;9.80;4.50;;;;;;;;;;1435834;41;20439;-86
2021/06/12 04:06:10;;;;;;;8.32;4.53;;;;;;;;;;1431987;41;20432;-88
2021/06/12 04:07:13;;;;;;;12.75;4.32;;;;;;;;;;1424330;41;20439;-91
2021/06/12 04:08:14;;;;;;;9.15;4.43;;;;;;;;;;1429951;41;20435;-91
2021/06/12 04:09:16;;;;;;;8.73;4.50;;;;;;;;;;1422926;41;21024;-89
2021/06/12 04:10:18;;;;;;;8.00;4.07;;;;;;;;;;1428075;41;20459;-87
2021/06/12 04:11:20;;;;;;;9.15;4.32;;;;;;;;;;1433673;41;20567;-90
2021/06/12 04:12:21;;;;;;;10.07;4.35;;;;;;;;;;1432967;41;20502;-88
2021/06/12 04:13:25;;;;;;;9.93;4.10;;;;;;;;;;1435189;41;20416;-89
2021/06/12 04:14:27;;;;;;;7.55;4.85;;;;;;;;;;1434012;41;20451;-89
2021/06/12 04:15:28;;;;;;;9.40;4.75;;;;;;;;;;1424112;41;20451;-87
2021/06/12 04:16:30;;;;;;;8.38;4.25;;;;;;;;;;1427098;41;20472;-89
2021/06/12 04:17:32;;;;;;;11.77;4.00;;;;;;;;;;1433988;41;20808;-86
2021/06/12 04:18:34;;;;;;;7.18;4.13;;;;;;;;;;1430351;41;20801;-86
2021/06/12 04:19:39;;;;;;;8.65;4.03;;;;;;;;;;1425482;41;20436;-87
2021/06/12 04:20:41;;;;;;;8.95;4.15;;;;;;;;;;1425745;41;20494;-87
2021/06/12 04:21:43;;;;;;;9.30;4.45;;;;;;;;;;1426512;41;20421;-87
2021/06/12 04:22:45;;;;;;;7.70;3.63;;;;;;;;;;1422053;41;20943;-86
2021/06/12 04:23:46;;;;;;;12.68;4.43;;;;;;;;;;1422243;41;20731;-84
2021/06/12 04:24:48;;;;;;;8.00;3.60;;;;;;;;;;1422519;41;20426;-85
2021/06/12 04:25:50;;;;;;;10.18;3.63;;;;;;;;;;1426526;41;20432;-87
2021/06/12 04:26:51;;;;;;;7.82;3.67;;;;;;;;;;1426319;41;20432;-87
2021/06/12 04:27:53;;;;;;;7.07;3.47;;;;;;;;;;1422289;41;20481;-87
2021/06/12 04:28:55;;;;;;;5.70;3.50;;;;;;;;;;1426175;41;20492;-88
2021/06/12 04:29:56;;;;;;;9.00;3.35;;;;;;;;;;1433380;41;20502;-86
2021/06/12 04:30:58;;;;;;;6.90;3.40;;;;;;;;;;1425739;41;20854;-86
2021/06/12 04:32:03;;;;;;;11.10;3.40;;;;;;;;;;1423195;41;20634;-86
2021/06/12 04:33:07;;;;;;;9.75;4.03;;;;;;;;;;1423163;41;20429;-88
2021/06/12 04:34:12;;;;;;;9.35;3.90;;;;;;;;;;1424935;41;20430;-86
2021/06/12 04:35:17;;;;;;;7.70;3.92;;;;;;;;;;1423761;41;20422;-86
2021/06/12 04:36:28;;;;;;;6.65;3.67;;;;;;;;;;1421476;41;20502;-85
2021/06/12 04:37:31;;;;;;;6.00;3.72;;;;;;;;;;1428511;41;20436;-86
2021/06/12 04:38:35;;;;;;;9.13;4.25;;;;;;;;;;1435681;41;21182;-86
2021/06/12 04:39:42;;;;;;;9.85;4.43;;;;;;;;;;1434581;41;20425;-86
2021/06/12 04:40:45;;;;;;;7.68;3.58;;;;;;;;;;1427889;41;20408;-86
2021/06/12 04:41:52;;;;;;;7.05;2.88;;;;;;;;;;1421940;41;20422;-84
2021/06/12 04:42:54;;;;;;;6.60;2.80;;;;;;;;;;1426388;41;20468;-87
2021/06/12 04:43:56;;;;;;;9.07;3.90;;;;;;;;;;1429378;41;20466;-88
2021/06/12 04:44:58;;;;;;;7.53;3.72;;;;;;;;;;1425753;41;20752;-87
2021/06/12 04:45:59;;;;;;;7.00;2.85;;;;;;;;;;1426478;41;20428;-87
2021/06/12 04:47:02;;;;;;;6.57;3.08;;;;;;;;;;1422464;41;20438;-87
2021/06/12 04:48:05;;;;;;;7.47;3.25;;;;;;;;;;1422681;41;20473;-87
2021/06/12 04:49:06;;;;;;;13.88;4.00;;;;;;;;;;1426755;41;21018;-86
2021/06/12 04:50:12;;;;;;;8.35;3.38;;;;;;;;;;1430644;41;20450;-88
2021/06/12 04:51:14;;;;;;;8.93;3.38;;;;;;;;;;1433555;41;20436;-86
2021/06/12 04:52:15;;;;;;;10.35;3.63;;;;;;;;;;1426352;41;20416;-87
2021/06/12 04:53:17;;;;;;;6.97;3.20;;;;;;;;;;1422758;41;20531;-89
2021/06/12 04:54:19;;;;;;;8.93;2.78;;;;;;;;;;1422922;41;20491;-87
2021/06/12 04:55:20;;;;;;;8.48;2.80;;;;;;;;;;1425097;41;20418;-88
2021/06/12 04:56:22;;;;;;;7.63;2.78;;;;;;;;;;1431420;41;20428;-86
2021/06/12 04:57:24;;;;;;;9.50;3.90;;;;;;;;;;1429926;41;20423;-86
2021/06/12 04:58:28;;;;;;;8.25;3.10;;;;;;;;;;1434989;41;20423;-86
2021/06/12 04:59:44;;;;;;;6.93;3.10;;;;;;;;;;1438169;41;20481;-86
2021/06/12 05:00:48;;;;;;;7.13;3.28;;;;;;;;;;1433746;41;20407;-85
2021/06/12 05:01:50;;;;;;;9.25;3.10;;;;;;;;;;1432675;41;20415;-85
2021/06/12 05:02:52;;;;;;;6.47;3.10;;;;;;;;;;1435633;41;20492;-87
2021/06/12 05:03:55;;;;;;;6.53;3.08;;;;;;;;;;1423768;41;20426;-86
2021/06/12 05:04:56;;;;;;;3.78;2.30;;;;;;;;;;1425550;41;20719;-86
2021/06/12 05:05:58;;;;;;;9.10;3.28;;;;;;;;;;1430840;41;20494;-86
2021/06/12 05:07:00;;;;;;;7.93;2.75;;;;;;;;;;1424660;41;20430;-86
2021/06/12 05:08:01;;;;;;;7.80;2.83;;;;;;;;;;1430999;41;20505;-86
2021/06/12 05:09:03;;;;;;;8.48;3.38;;;;;;;;;;1432309;41;20452;-86
2021/06/12 05:10:07;;;;;;;7.70;2.60;;;;;;;;;;1431649;41;20477;-84
2021/06/12 05:11:09;;;;;;;7.57;2.75;;;;;;;;;;1438990;41;20448;-87
2021/06/12 05:12:11;;;;;;;7.93;2.85;;;;;;;;;;1433737;41;20436;-87
2021/06/12 05:13:13;;;;;;;8.35;2.45;;;;;;;;;;1432073;41;20458;-85
2021/06/12 05:14:14;;;;;;;8.15;2.47;;;;;;;;;;1431317;41;20424;-87
2021/06/12 05:15:16;;;;;;;6.80;2.50;;;;;;;;;;1431396;41;20511;-86
2021/06/12 05:16:18;;;;;;;6.97;2.85;;;;;;;;;;1427277;41;20839;-88
2021/06/12 05:17:20;;;;;;;8.00;2.83;;;;;;;;;;1419878;41;20463;-86
2021/06/12 05:18:28;;;;;;;8.30;2.25;;;;;;;;;;1426005;41;20517;-87
2021/06/12 05:19:30;;;;;;;7.63;2.15;;;;;;;;;;1424368;41;20486;-88
2021/06/12 05:20:35;;;;;;;6.50;2.80;;;;;;;;;;1421811;41;20434;-87
2021/06/12 05:21:39;;;;;;;5.40;2.13;;;;;;;;;;1427902;41;20770;-87
2021/06/12 05:22:41;;;;;;;5.85;2.15;;;;;;;;;;1425581;41;20451;-85
2021/06/12 05:23:43;;;;;;;5.65;2.55;;;;;;;;;;1429578;41;20565;-86
2021/06/12 05:24:45;;;;;;;9.35;2.80;;;;;;;;;;1432093;41;20786;-86
2021/06/12 05:25:47;;;;;;;7.55;2.42;;;;;;;;;;1434355;41;20839;-85
2021/06/12 05:26:48;;;;;;;8.43;2.15;;;;;;;;;;1430758;41;20414;-86
2021/06/12 05:27:50;;;;;;;6.80;2.33;;;;;;;;;;1422682;41;20430;-87
2021/06/12 05:28:52;;;;;;;5.55;2.00;;;;;;;;;;1426336;41;20512;-88
2021/06/12 05:29:54;;;;;;;5.90;2.30;;;;;;;;;;1426683;41;20424;-88
2021/06/12 05:30:56;;;;;;;6.80;1.63;;;;;;;;;;1426959;41;20420;-88
2021/06/12 05:31:58;;;;;;;10.45;2.60;;;;;;;;;;1425537;41;20431;-86
2021/06/12 05:32:59;;;;;;;8.88;2.55;;;;;;;;;;1422718;41;20475;-89
2021/06/12 05:34:03;;;;;;;5.35;1.85;;;;;;;;;;1419246;41;20829;-87
2021/06/12 05:35:06;;;;;;;6.27;2.33;;;;;;;;;;1426046;41;20913;-88
2021/06/12 05:36:09;;;;;;;4.78;1.45;;;;;;;;;;1431193;41;20695;-89
2021/06/12 05:37:12;;;;;;;7.55;2.10;;;;;;;;;;1422706;41;20450;-86
2021/06/12 05:38:14;;;;;;;9.10;2.40;;;;;;;;;;1426579;41;20534;-89
2021/06/12 05:39:17;;;;;;;5.30;1.48;;;;;;;;;;1426578;41;20425;-87
2021/06/12 05:40:18;;;;;;;5.80;1.90;;;;;;;;;;1420470;41;20415;-87
2021/06/12 05:41:20;;;;;;;6.95;2.00;;;;;;;;;;1426868;41;20427;-87
2021/06/12 05:42:22;;;;;;;2.70;1.60;;;;;;;;;;1430207;41;20445;-87
2021/06/12 05:43:23;;;;;;;5.20;1.90;;;;;;;;;;1427245;41;21171;-88
2021/06/12 05:44:28;;;;;;;8.82;2.10;;;;;;;;;;1424281;41;20430;-90
2021/06/12 05:45:31;;;;;;;7.82;1.70;;;;;;;;;;1428535;41;20415;-84
2021/06/12 05:46:33;;;;;;;3.63;1.60;;;;;;;;;;1426449;41;20558;-84
2021/06/12 05:47:35;;;;;;;5.00;1.80;;;;;;;;;;1424520;41;20484;-84
2021/06/12 05:48:37;;;;;;;5.70;1.67;;;;;;;;;;1430434;41;20430;-83
2021/06/12 05:49:38;;;;;;;9.00;2.20;;;;;;;;;;1429885;41;20565;-82
2021/06/12 05:50:40;;;;;;;4.35;1.50;;;;;;;;;;1425689;41;20428;-83
2021/06/12 05:51:42;;;;;;;6.70;2.20;;;;;;;;;;1422736;41;20430;-83
2021/06/12 05:52:44;;;;;;;7.00;2.20;;;;;;;;;;1419232;41;20455;-84
2021/06/12 05:53:48;;;;;;;3.30;1.75;;;;;;;;;;1424703;41;20426;-83
2021/06/12 05:54:49;;;;;;;6.20;2.05;;;;;;;;;;1427219;41;20783;-84
2021/06/12 05:55:52;;;;;;;4.55;2.10;;;;;;;;;;1423925;41;20426;-83
2021/06/12 05:56:55;;;;;;;8.18;1.50;;;;;;;;;;1418690;41;20416;-82
2021/06/12 05:57:57;;;;;;;6.18;1.65;;;;;;;;;;1422647;41;20428;-82
2021/06/12 05:58:58;;;;;;;10.02;1.88;;;;;;;;;;1425557;41;21012;-84
2021/06/12 06:00:00;;;;;;;6.37;1.70;;;;;;;;;;1423857;41;20605;-84
2021/06/12 06:01:08;;;;;;;8.30;2.35;;;;;;;;;;1415781;41;20438;-84
2021/06/12 06:02:10;;;;;;;5.25;1.73;;;;;;;;;;1427135;41;21171;-84
2021/06/12 06:03:15;;;;;;;3.72;1.88;;;;;;;;;;1429499;41;20411;-84
2021/06/12 06:04:16;;;;;;;5.50;2.10;;;;;;;;;;1422654;41;20861;-83
2021/06/12 06:05:18;;;;;;;6.65;2.00;;;;;;;;;;1418805;41;20971;-86
2021/06/12 06:06:20;;;;;;;6.63;2.30;;;;;;;;;;1423653;41;20752;-83
2021/06/12 06:07:21;;;;;;;8.93;1.90;;;;;;;;;;1425420;41;20452;-84
2021/06/12 06:08:24;;;;;;;4.05;1.30;;;;;;;;;;1422426;41;20515;-83
2021/06/12 06:09:25;;;;;;;4.85;1.95;;;;;;;;;;1429791;41;20426;-84
2021/06/12 06:10:27;;;;;;;4.50;1.30;;;;;;;;;;1433170;41;20413;-83
2021/06/12 06:11:29;;;;;;;5.18;2.30;;;;;;;;;;1426595;41;20444;-85
2021/06/12 06:12:31;;;;;;;6.72;1.88;;;;;;;;;;1422476;41;20538;-83
2021/06/12 06:13:40;;;;;;;7.07;1.35;;;;;;;;;;1422797;41;20425;-83
2021/06/12 06:14:42;;;;;;;5.50;1.70;;;;;;;;;;1430207;41;20426;-82
2021/06/12 06:15:43;;;;;;;7.87;2.17;;;;;;;;;;1432597;41;20542;-84
2021/06/12 06:16:45;;;;;;;4.40;1.60;;;;;;;;;;1426906;41;20552;-84
2021/06/12 06:17:47;;;;;;;5.90;1.92;;;;;;;;;;1426039;41;20420;-82
2021/06/12 06:18:49;;;;;;;4.32;1.85;;;;;;;;;;1425796;41;20894;-84
2021/06/12 06:19:50;;;;;;;5.15;1.83;;;;;;;;;;1421344;41;20581;-85
2021/06/12 06:20:52;;;;;;;6.53;2.00;;;;;;;;;;1422867;41;20841;-85